createdAt,value
2022-08-22T00:00:52.999Z,13.7
2022-08-22T00:04:55.579Z,13.55
2022-08-22T00:06:56.944Z,13.49
2022-08-22T00:08:58.323Z,13.4
2022-08-22T00:10:59.470Z,13.4
2022-08-22T00:13:01.029Z,13.36
2022-08-22T00:15:01.962Z,13.31
2022-08-22T00:17:03.231Z,13.3
2022-08-22T00:19:04.889Z,13.33
2022-08-22T00:21:06.269Z,13.33
2022-08-22T00:23:07.683Z,13.31
2022-08-22T00:25:08.980Z,13.31
2022-08-22T00:27:10.713Z,13.31
2022-08-22T00:29:12.407Z,13.27
2022-08-22T00:31:13.512Z,13.33
2022-08-22T00:33:15.012Z,13.31
2022-08-22T00:35:16.730Z,13.28
2022-08-22T00:37:17.962Z,13.2
2022-08-22T00:39:19.263Z,13.05
2022-08-22T00:41:20.404Z,12.9
2022-08-22T00:43:21.571Z,12.74
2022-08-22T00:45:22.630Z,12.57
2022-08-22T00:47:23.817Z,12.44
2022-08-22T00:49:25.473Z,12.36
2022-08-22T00:51:26.900Z,12.34
2022-08-22T00:53:28.577Z,12.27
2022-08-22T00:55:34.793Z,12.26
2022-08-22T00:59:33.396Z,12.34
2022-08-22T01:01:35.078Z,12.4
2022-08-22T01:03:36.435Z,12.42
2022-08-22T01:05:38.222Z,12.37
2022-08-22T01:07:39.208Z,12.38
2022-08-22T01:09:41.098Z,12.38
2022-08-22T01:11:42.698Z,12.54
2022-08-22T01:13:44.266Z,12.48
2022-08-22T01:15:45.495Z,12.33
2022-08-22T01:17:46.997Z,12.29
2022-08-22T01:19:48.917Z,12.26
2022-08-22T01:21:50.676Z,12.2
2022-08-22T01:23:52.100Z,12.22
2022-08-22T01:25:53.488Z,12.25
2022-08-22T01:27:54.893Z,12.29
2022-08-22T01:29:56.777Z,12.32
2022-08-22T01:31:58.093Z,12.36
2022-08-22T01:33:59.883Z,12.32
2022-08-22T01:36:01.429Z,12.29
2022-08-22T01:38:02.925Z,12.22
2022-08-22T01:42:05.410Z,12.13
2022-08-22T01:44:07.324Z,12.08
2022-08-22T01:46:08.650Z,12.06
2022-08-22T01:48:10.449Z,12.05
2022-08-22T01:50:11.499Z,12.02
2022-08-22T01:52:13.199Z,11.99
2022-08-22T01:54:15.089Z,12.01
2022-08-22T01:56:16.503Z,11.91
2022-08-22T01:58:18.166Z,11.86
2022-08-22T02:00:19.993Z,11.84
2022-08-22T02:02:21.031Z,11.79
2022-08-22T02:04:22.433Z,11.81
2022-08-22T02:06:23.391Z,11.89
2022-08-22T02:08:24.552Z,11.96
2022-08-22T02:10:25.615Z,12.03
2022-08-22T02:12:27.274Z,12.02
2022-08-22T02:14:29.078Z,11.96
2022-08-22T02:16:30.612Z,11.84
2022-08-22T02:18:31.836Z,11.73
2022-08-22T02:20:33.486Z,11.59
2022-08-22T02:22:35.045Z,11.44
2022-08-22T02:24:36.762Z,11.29
2022-08-22T02:26:38.311Z,11.22
2022-08-22T02:28:40.403Z,11.21
2022-08-22T02:30:41.267Z,11.2
2022-08-22T02:32:42.838Z,11.25
2022-08-22T02:34:44.181Z,11.31
2022-08-22T02:36:45.172Z,11.35
2022-08-22T02:38:47.104Z,11.4
2022-08-22T02:40:48.384Z,11.4
2022-08-22T02:42:49.828Z,11.44
2022-08-22T02:44:51.360Z,11.39
2022-08-22T02:46:52.614Z,11.34
2022-08-22T02:48:54.230Z,11.29
2022-08-22T02:50:56.069Z,11.27
2022-08-22T02:52:57.046Z,11.16
2022-08-22T02:54:58.525Z,11.06
2022-08-22T02:57:00.366Z,11.01
2022-08-22T02:59:01.558Z,10.92
2022-08-22T03:01:03.173Z,10.87
2022-08-22T03:03:04.675Z,10.85
2022-08-22T03:05:05.665Z,10.86
2022-08-22T03:07:07.039Z,10.84
2022-08-22T03:09:08.960Z,10.85
2022-08-22T03:11:10.903Z,10.82
2022-08-22T03:13:12.112Z,10.8
2022-08-22T03:15:13.079Z,10.81
2022-08-22T03:17:14.179Z,10.78
2022-08-22T03:19:18.649Z,10.85
2022-08-22T03:21:16.444Z,10.81
2022-08-22T03:23:17.666Z,10.8
2022-08-22T03:25:19.360Z,10.79
2022-08-22T03:27:23.219Z,10.8
2022-08-22T03:29:22.729Z,10.81
2022-08-22T03:31:24.317Z,10.82
2022-08-22T03:33:26.001Z,10.8
2022-08-22T03:35:27.357Z,10.78
2022-08-22T03:37:29.183Z,10.73
2022-08-22T03:39:30.804Z,10.68
2022-08-22T03:40:14.763Z,10.64
2022-08-22T03:42:16.592Z,10.69
2022-08-22T03:44:18.219Z,10.64
2022-08-22T03:46:19.821Z,10.63
2022-08-22T03:48:21.213Z,10.65
2022-08-22T03:50:22.541Z,10.71
2022-08-22T03:52:25.008Z,10.72
2022-08-22T03:54:25.562Z,10.8
2022-08-22T03:56:27.225Z,10.81
2022-08-22T03:58:29.167Z,10.8
2022-08-22T04:00:31.076Z,10.79
2022-08-22T04:02:42.669Z,10.78
2022-08-22T04:04:34.555Z,10.75
2022-08-22T04:06:36.073Z,10.73
2022-08-22T04:08:37.801Z,10.67
2022-08-22T04:10:39.135Z,10.75
2022-08-22T04:12:40.733Z,10.76
2022-08-22T04:14:42.152Z,10.75
2022-08-22T04:16:43.424Z,10.68
2022-08-22T04:18:45.078Z,10.72
2022-08-22T04:20:46.365Z,10.73
2022-08-22T04:22:48.004Z,10.65
2022-08-22T04:24:49.246Z,10.65
2022-08-22T04:26:50.876Z,10.59
2022-08-22T04:28:52.656Z,10.51
2022-08-22T04:30:53.680Z,10.59
2022-08-22T04:32:55.534Z,10.54
2022-08-22T04:34:56.507Z,10.58
2022-08-22T04:36:58.290Z,10.51
2022-08-22T04:38:59.982Z,10.43
2022-08-22T04:41:04.494Z,10.41
2022-08-22T04:43:03.611Z,10.44
2022-08-22T04:45:04.807Z,10.42
2022-08-22T04:47:06.530Z,10.38
2022-08-22T04:49:08.291Z,10.36
2022-08-22T04:51:09.716Z,10.39
2022-08-22T04:53:11.201Z,10.46
2022-08-22T04:55:13.067Z,10.76
2022-08-22T04:57:14.211Z,11.06
2022-08-22T04:59:15.363Z,11.41
2022-08-22T05:01:17.192Z,11.64
2022-08-22T05:03:18.892Z,11.74
2022-08-22T05:05:20.357Z,11.64
2022-08-22T05:07:22.290Z,11.55
2022-08-22T05:09:23.484Z,11.51
2022-08-22T05:11:24.977Z,11.53
2022-08-22T05:13:26.068Z,11.68
2022-08-22T05:15:27.312Z,12.08
2022-08-22T05:17:28.779Z,12.22
2022-08-22T05:19:32.013Z,12.54
2022-08-22T05:21:31.507Z,12.77
2022-08-22T05:23:32.901Z,12.85
2022-08-22T05:25:35.359Z,13.08
2022-08-22T05:27:36.051Z,13.45
2022-08-22T05:29:37.456Z,13.75
2022-08-22T05:31:38.654Z,14.04
2022-08-22T05:33:40.282Z,14.21
2022-08-22T05:35:43.947Z,14.25
2022-08-22T05:37:42.697Z,14.12
2022-08-22T05:39:44.466Z,14.36
2022-08-22T05:41:45.852Z,14.26
2022-08-22T05:43:46.901Z,13.9
2022-08-22T05:45:47.983Z,14.26
2022-08-22T05:47:49.487Z,14.57
2022-08-22T05:49:51.299Z,14.57
2022-08-22T05:51:52.954Z,14.2
2022-08-22T05:53:54.678Z,13.72
2022-08-22T05:55:56.008Z,13.46
2022-08-22T05:57:57.177Z,13.49
2022-08-22T05:59:58.976Z,13.09
2022-08-22T06:02:00.476Z,13.1
2022-08-22T06:04:02.250Z,13.39
2022-08-22T06:06:03.557Z,13.54
2022-08-22T06:08:05.391Z,13.52
2022-08-22T06:10:07.065Z,14.13
2022-08-22T06:12:08.833Z,14.45
2022-08-22T06:14:09.762Z,14.94
2022-08-22T06:16:10.934Z,15.22
2022-08-22T06:18:11.917Z,15.36
2022-08-22T06:20:13.267Z,16.05
2022-08-22T06:24:16.077Z,16.2
2022-08-22T06:26:20.113Z,16.09
2022-08-22T06:28:18.715Z,16.23
2022-08-22T06:30:20.442Z,16.99
2022-08-22T06:32:26.997Z,17.76
2022-08-22T06:34:23.173Z,17.77
2022-08-22T06:36:24.291Z,17.37
2022-08-22T06:38:25.423Z,17.3
2022-08-22T06:40:26.575Z,17.14
2022-08-22T06:42:27.901Z,17.11
2022-08-22T06:44:29.023Z,16.52
2022-08-22T06:46:30.717Z,16.83
2022-08-22T06:48:31.764Z,16.89
2022-08-22T06:50:32.960Z,17.01
2022-08-22T06:52:34.464Z,16.89
2022-08-22T06:54:35.846Z,17.35
2022-08-22T06:56:37.029Z,17.61
2022-08-22T06:58:38.091Z,17.66
2022-08-22T07:00:39.394Z,17.93
2022-08-22T07:02:40.506Z,17.91
2022-08-22T07:04:42.116Z,17.93
2022-08-22T07:06:43.208Z,17.79
2022-08-22T07:08:44.465Z,18.09
2022-08-22T07:10:45.858Z,17.91
2022-08-22T07:12:47.504Z,18.5
2022-08-22T07:14:48.533Z,18.44
2022-08-22T07:16:49.406Z,18.67
2022-08-22T07:18:51.021Z,19.05
2022-08-22T07:20:53.170Z,19.15
2022-08-22T07:22:54.146Z,18.86
2022-08-22T07:24:54.279Z,18.82
2022-08-22T07:26:55.920Z,19.12
2022-08-22T07:28:58.335Z,19.71
2022-08-22T07:30:59.181Z,19.79
2022-08-22T07:33:00.684Z,19.53
2022-08-22T07:35:02.040Z,19.73
2022-08-22T07:37:02.902Z,19.6
2022-08-22T07:39:05.196Z,19.87
2022-08-22T07:41:06.103Z,20.41
2022-08-22T07:43:07.715Z,20.46
2022-08-22T07:45:09.203Z,20.81
2022-08-22T07:47:10.650Z,20.78
2022-08-22T07:49:11.744Z,20.85
2022-08-22T07:51:12.629Z,21.33
2022-08-22T07:53:14.279Z,20.91
2022-08-22T07:55:15.111Z,21.3
2022-08-22T07:57:16.244Z,21.29
2022-08-22T07:59:17.642Z,21.75
2022-08-22T08:01:19.289Z,21.88
2022-08-22T08:03:20.965Z,22.14
2022-08-22T08:05:21.994Z,21.88
2022-08-22T08:07:23.066Z,22.08
2022-08-22T08:09:25.158Z,22.86
2022-08-22T08:11:26.536Z,23.02
2022-08-22T08:13:28.062Z,22.84
2022-08-22T08:15:29.778Z,22.97
2022-08-22T08:17:32.286Z,23.02
2022-08-22T08:19:32.602Z,23.53
2022-08-22T08:21:33.599Z,24.03
2022-08-22T08:23:37.896Z,24.3
2022-08-22T08:25:35.994Z,24.17
2022-08-22T08:27:36.910Z,24.34
2022-08-22T08:29:37.943Z,24.63
2022-08-22T08:31:39.816Z,24.83
2022-08-22T08:33:40.368Z,24.76
2022-08-22T08:35:42.273Z,24.91
2022-08-22T08:37:42.419Z,25.32
2022-08-22T08:39:43.887Z,25.42
2022-08-22T08:41:45.248Z,25.34
2022-08-22T08:43:46.486Z,25.63
2022-08-22T08:45:48.150Z,25.18
2022-08-22T08:47:49.148Z,24.87
2022-08-22T08:49:50.533Z,25.02
2022-08-22T08:51:51.423Z,25.11
2022-08-22T08:53:53.025Z,24.85
2022-08-22T08:55:53.904Z,24.91
2022-08-22T08:57:55.496Z,24.93
2022-08-22T08:59:56.453Z,25.64
2022-08-22T09:01:57.399Z,25.16
2022-08-22T09:03:58.471Z,25.73
2022-08-22T09:05:59.511Z,25.41
2022-08-22T09:08:01.036Z,25.68
2022-08-22T09:10:02.414Z,25.55
2022-08-22T09:12:04.191Z,25.08
2022-08-22T09:14:05.791Z,25.56
2022-08-22T09:16:06.852Z,25.29
2022-08-22T09:20:15.641Z,25.55
2022-08-22T09:22:14.423Z,25.38
2022-08-22T09:24:12.806Z,25.3
2022-08-22T09:26:13.675Z,25.33
2022-08-22T09:28:14.855Z,25.95
2022-08-22T09:30:16.278Z,25.84
2022-08-22T09:32:17.135Z,25.81
2022-08-22T09:34:23.921Z,25.9
2022-08-22T09:36:20.239Z,26.18
2022-08-22T09:38:21.599Z,26.36
2022-08-22T09:42:24.812Z,26.4
2022-08-22T09:44:25.715Z,25.99
2022-08-22T09:46:31.377Z,25.97
2022-08-22T09:48:28.205Z,25.76
2022-08-22T09:50:29.466Z,26.01
2022-08-22T09:52:33.029Z,26.35
2022-08-22T09:54:32.784Z,26.31
2022-08-22T09:56:33.395Z,26.75
2022-08-22T09:58:37.693Z,27.12
2022-08-22T10:00:35.286Z,26.85
2022-08-22T10:02:36.484Z,26.85
2022-08-22T10:04:37.964Z,27.04
2022-08-22T10:06:39.630Z,27.65
2022-08-22T10:08:40.633Z,27.48
2022-08-22T10:10:41.728Z,27.37
2022-08-22T10:12:44.763Z,27.05
2022-08-22T10:14:50.414Z,25.67
2022-08-22T10:16:45.461Z,26.28
2022-08-22T10:18:52.901Z,27.01
2022-08-22T10:20:48.291Z,26.81
2022-08-22T10:22:49.675Z,25.8
2022-08-22T10:24:51.213Z,26.05
2022-08-22T10:25:43.793Z,26.03
2022-08-22T10:27:45.007Z,25.55
2022-08-22T10:29:46.142Z,25.41
2022-08-22T10:31:58.410Z,25.4
2022-08-22T10:33:48.685Z,25.33
2022-08-22T10:35:50.290Z,25.33
2022-08-22T10:37:51.357Z,25.34
2022-08-22T10:39:53.149Z,25.8
2022-08-22T10:41:54.195Z,26.49
2022-08-22T10:43:56.477Z,26.63
2022-08-22T10:45:56.579Z,26.21
2022-08-22T10:47:57.558Z,26.23
2022-08-22T10:49:59.180Z,25.56
2022-08-22T10:52:06.478Z,25.67
2022-08-22T10:54:01.931Z,25.47
2022-08-22T10:56:03.083Z,25.49
2022-08-22T10:58:04.488Z,25.78
2022-08-22T11:00:05.797Z,26.29
2022-08-22T11:02:07.288Z,27.1
2022-08-22T11:04:08.424Z,27.5
2022-08-22T11:06:10.201Z,27.54
2022-08-22T11:08:11.945Z,27.24
2022-08-22T11:10:13.443Z,27.16
2022-08-22T11:12:15.105Z,27.16
2022-08-22T11:14:16.182Z,27.12
2022-08-22T11:16:17.717Z,27.74
2022-08-22T11:18:19.175Z,27.38
2022-08-22T11:20:20.557Z,26.36
2022-08-22T11:22:22.208Z,26.07
2022-08-22T11:24:30.092Z,26.17
2022-08-22T11:26:29.253Z,26.16
2022-08-22T11:28:26.666Z,26.06
2022-08-22T11:30:27.624Z,26.03
2022-08-22T11:32:28.658Z,25.8
2022-08-22T11:34:30.095Z,26.31
2022-08-22T11:36:31.790Z,27.19
2022-08-22T11:38:33.125Z,27.09
2022-08-22T11:40:34.343Z,27.09
2022-08-22T11:42:35.051Z,26.84
2022-08-22T11:44:37.539Z,27.47
2022-08-22T11:46:37.498Z,27.58
2022-08-22T11:48:39.191Z,28.08
2022-08-22T11:50:42.038Z,27.92
2022-08-22T11:52:41.362Z,28.02
2022-08-22T11:54:42.786Z,27.58
2022-08-22T11:56:43.565Z,27.71
2022-08-22T11:58:44.700Z,27.37
2022-08-22T12:00:46.037Z,27.5
2022-08-22T12:02:47.404Z,28.02
2022-08-22T12:04:47.986Z,27.73
2022-08-22T12:06:49.789Z,28.29
2022-08-22T12:08:50.699Z,28.14
2022-08-22T12:10:52.183Z,28.5
2022-08-22T12:12:53.943Z,28.37
2022-08-22T12:14:55.056Z,28.14
2022-08-22T12:16:55.897Z,28.39
2022-08-22T12:20:58.917Z,27.79
2022-08-22T12:25:10.272Z,27.41
2022-08-22T12:27:02.396Z,26.86
2022-08-22T12:29:04.020Z,26.68
2022-08-22T12:31:04.897Z,26.63
2022-08-22T12:33:06.262Z,27.06
2022-08-22T12:35:13.609Z,27.64
2022-08-22T12:39:09.761Z,28.32
2022-08-22T12:41:10.774Z,28.1
2022-08-22T12:43:11.854Z,28.56
2022-08-22T12:45:12.758Z,28.38
2022-08-22T12:47:13.780Z,29.17
2022-08-22T12:49:15.239Z,29.04
2022-08-22T12:51:17.797Z,29.02
2022-08-22T12:53:20.164Z,28.63
2022-08-22T12:55:19.237Z,29.24
2022-08-22T12:57:24.167Z,29.36
2022-08-22T12:59:21.559Z,28.81
2022-08-22T13:01:33.793Z,28.37
2022-08-22T13:03:24.699Z,28.7
2022-08-22T13:05:25.732Z,28.53
2022-08-22T13:07:27.314Z,28.15
2022-08-22T13:09:28.497Z,28.5
2022-08-22T13:11:29.170Z,28.48
2022-08-22T13:13:31.445Z,28.39
2022-08-22T13:15:32.702Z,28.41
2022-08-22T13:17:33.603Z,28.65
2022-08-22T13:19:35.041Z,28.96
2022-08-22T13:21:36.493Z,29
2022-08-22T13:23:39.734Z,28.41
2022-08-22T13:25:38.921Z,29.34
2022-08-22T13:27:40.088Z,29.85
2022-08-22T13:29:42.785Z,29.79
2022-08-22T13:31:43.050Z,29.4
2022-08-22T13:33:44.049Z,30.31
2022-08-22T13:35:52.231Z,30.49
2022-08-22T13:37:46.453Z,29.61
2022-08-22T13:39:48.868Z,28.92
2022-08-22T13:41:48.263Z,29.34
2022-08-22T13:43:49.216Z,28.81
2022-08-22T13:45:50.182Z,29.03
2022-08-22T13:47:51.903Z,28.53
2022-08-22T13:49:52.762Z,29.16
2022-08-22T13:51:54.049Z,29.09
2022-08-22T13:53:58.064Z,28.57
2022-08-22T13:55:56.794Z,29.03
2022-08-22T13:57:57.871Z,28.66
2022-08-22T14:02:00.747Z,29.25
2022-08-22T14:04:01.750Z,28.93
2022-08-22T14:06:06.265Z,29.1
2022-08-22T14:08:04.565Z,29.5
2022-08-22T14:10:05.364Z,29.29
2022-08-22T14:12:06.388Z,29.34
2022-08-22T14:14:08.218Z,29.1
2022-08-22T14:16:10.357Z,29.88
2022-08-22T14:18:10.287Z,29.99
2022-08-22T14:20:11.085Z,29.82
2022-08-22T14:22:14.333Z,29.55
2022-08-22T14:24:13.663Z,29.19
2022-08-22T14:26:14.459Z,28.58
2022-08-22T14:28:15.336Z,27.83
2022-08-22T14:30:16.957Z,27.99
2022-08-22T14:32:18.651Z,27.34
2022-08-22T14:34:19.474Z,27.13
2022-08-22T14:36:20.540Z,27.26
2022-08-22T14:38:26.167Z,27.3
2022-08-22T14:40:23.401Z,26.96
2022-08-22T14:42:24.763Z,27.34
2022-08-22T14:44:26.223Z,27.83
2022-08-22T14:46:27.489Z,27.55
2022-08-22T14:48:30.817Z,28.1
2022-08-22T14:50:30.724Z,28.2
2022-08-22T14:52:32.166Z,28.67
2022-08-22T14:54:33.378Z,28.4
2022-08-22T14:56:34.549Z,28.35
2022-08-22T14:58:35.556Z,28.28
2022-08-22T15:00:36.681Z,28.69
2022-08-22T15:02:37.725Z,28.82
2022-08-22T15:04:39.294Z,28.64
2022-08-22T15:06:43.900Z,28.71
2022-08-22T15:08:42.451Z,29.22
2022-08-22T15:10:43.698Z,29.24
2022-08-22T15:12:45.423Z,28.94
2022-08-22T15:14:48.985Z,29.39
2022-08-22T15:16:48.301Z,28.93
2022-08-22T15:18:51.927Z,28.86
2022-08-22T15:20:52.199Z,28.35
2022-08-22T15:22:51.424Z,28.31
2022-08-22T15:24:53.082Z,28.19
2022-08-22T15:26:55.375Z,28.08
2022-08-22T15:28:55.593Z,27.65
2022-08-22T15:30:57.266Z,27.72
2022-08-22T15:32:59.007Z,27.84
2022-08-22T15:35:00.334Z,28.06
2022-08-22T15:37:05.132Z,28.27
2022-08-22T15:39:03.730Z,27.97
2022-08-22T15:41:04.986Z,28.23
2022-08-22T15:43:06.316Z,28.5
2022-08-22T15:45:07.894Z,28.22
2022-08-22T15:47:10.966Z,27.99
2022-08-22T15:49:11.146Z,27.77
2022-08-22T15:51:11.833Z,27.71
2022-08-22T15:53:13.373Z,27.08
2022-08-22T15:55:14.214Z,26.59
2022-08-22T15:57:15.403Z,26.7
2022-08-22T15:59:16.771Z,27.05
2022-08-22T16:01:19.272Z,27.29
2022-08-22T16:03:18.743Z,27.29
2022-08-22T16:05:20.442Z,27.32
2022-08-22T16:07:21.253Z,27.61
2022-08-22T16:09:22.644Z,27.8
2022-08-22T16:11:24.249Z,27.83
2022-08-22T16:13:25.650Z,27.95
2022-08-22T16:15:27.256Z,27.69
2022-08-22T16:17:28.455Z,27.95
2022-08-22T16:19:29.678Z,27.79
2022-08-22T16:21:31.139Z,27.76
2022-08-22T16:23:32.527Z,28
2022-08-22T16:25:33.595Z,27.6
2022-08-22T16:27:34.614Z,27.65
2022-08-22T16:29:37.653Z,27.4
2022-08-22T16:31:36.810Z,27.49
2022-08-22T16:33:38.230Z,27.25
2022-08-22T16:35:39.529Z,27.26
2022-08-22T16:37:40.735Z,27.15
2022-08-22T16:39:42.289Z,27.2
2022-08-22T16:41:43.788Z,27.32
2022-08-22T16:43:52.546Z,27.39
2022-08-22T16:45:46.975Z,27.29
2022-08-22T16:47:52.167Z,27.1
2022-08-22T16:49:48.702Z,27.06
2022-08-22T16:51:49.900Z,26.93
2022-08-22T16:53:51.271Z,26.95
2022-08-22T16:55:52.456Z,26.84
2022-08-22T16:58:05.587Z,26.86
2022-08-22T16:59:54.290Z,26.7
2022-08-22T17:01:55.253Z,26.49
2022-08-22T17:03:56.696Z,26.44
2022-08-22T17:05:57.821Z,26.43
2022-08-22T17:07:59.071Z,26.32
2022-08-22T17:09:59.730Z,26.39
2022-08-22T17:12:44.381Z,26.35
2022-08-22T17:14:45.814Z,26.27
2022-08-22T17:18:48.102Z,26.06
2022-08-22T17:20:49.429Z,26
2022-08-22T17:22:50.983Z,25.93
2022-08-22T17:24:52.106Z,25.8
2022-08-22T17:26:55.104Z,25.79
2022-08-22T17:28:54.889Z,25.65
2022-08-22T17:30:56.353Z,25.53
2022-08-22T17:32:58.314Z,25.43
2022-08-22T17:34:58.950Z,25.29
2022-08-22T17:37:00.535Z,25.24
2022-08-22T17:39:02.070Z,25.13
2022-08-22T17:41:03.036Z,25.18
2022-08-22T17:43:04.185Z,24.91
2022-08-22T17:45:05.358Z,24.87
2022-08-22T17:47:06.928Z,24.84
2022-08-22T17:49:08.113Z,24.82
2022-08-22T17:51:09.394Z,24.72
2022-08-22T17:53:10.492Z,24.64
2022-08-22T17:55:11.791Z,24.5
2022-08-22T17:57:13.250Z,24.37
2022-08-22T17:59:17.974Z,24.27
2022-08-22T18:01:16.008Z,24.15
2022-08-22T18:03:17.286Z,23.96
2022-08-22T18:05:18.832Z,23.83
2022-08-22T18:07:20.074Z,23.76
2022-08-22T18:09:21.428Z,23.66
2022-08-22T18:11:23.226Z,23.53
2022-08-22T18:13:25.045Z,23.4
2022-08-22T18:15:26.838Z,23.31
2022-08-22T18:17:28.666Z,23.21
2022-08-22T18:19:29.674Z,23.09
2022-08-22T18:21:30.755Z,22.91
2022-08-22T18:23:35.988Z,22.82
2022-08-22T18:25:34.358Z,22.8
2022-08-22T18:27:35.692Z,22.78
2022-08-22T18:29:37.085Z,22.72
2022-08-22T18:31:38.674Z,22.55
2022-08-22T18:33:39.356Z,22.6
2022-08-22T18:35:40.255Z,22.62
2022-08-22T18:37:41.324Z,22.52
2022-08-22T18:39:42.655Z,22.48
2022-08-22T18:41:44.272Z,22.35
2022-08-22T18:43:45.803Z,22.19
2022-08-22T18:45:46.677Z,22.17
2022-08-22T18:47:47.740Z,22.03
2022-08-22T18:49:49.156Z,21.81
2022-08-22T18:51:50.483Z,21.81
2022-08-22T18:53:51.920Z,21.56
2022-08-22T18:55:53.691Z,21.59
2022-08-22T18:57:55.392Z,21.33
2022-08-22T18:59:56.756Z,21.92
2022-08-22T19:01:58.226Z,21.93
2022-08-22T19:03:59.747Z,22.35
2022-08-22T19:06:00.708Z,22.09
2022-08-22T19:08:02.271Z,22.14
2022-08-22T19:10:03.308Z,21.7
2022-08-22T19:12:04.587Z,21.5
2022-08-22T19:14:05.689Z,21.09
2022-08-22T19:16:06.807Z,20.71
2022-08-22T19:18:08.605Z,20.48
2022-08-22T19:20:10.163Z,20.3
2022-08-22T19:22:11.542Z,20.2
2022-08-22T19:24:12.873Z,20.62
2022-08-22T19:26:14.335Z,20.19
2022-08-22T19:28:15.640Z,20.12
2022-08-22T19:30:16.798Z,20
2022-08-22T19:32:18.252Z,19.85
2022-08-22T19:34:19.315Z,19.87
2022-08-22T19:36:20.331Z,19.87
2022-08-22T19:38:21.272Z,19.82
2022-08-22T19:42:24.075Z,19.67
2022-08-22T19:44:25.227Z,19.6
2022-08-22T19:46:26.738Z,19.66
2022-08-22T19:48:27.900Z,19.61
2022-08-22T19:50:30.868Z,19.65
2022-08-22T19:52:30.908Z,19.61
2022-08-22T19:54:32.120Z,19.55
2022-08-22T19:56:33.060Z,19.45
2022-08-22T20:00:35.849Z,19.34
2022-08-22T20:02:37.065Z,19.48
2022-08-22T20:04:37.972Z,19.57
2022-08-22T20:06:44.237Z,19.37
2022-08-22T20:08:40.144Z,19.31
2022-08-22T20:10:41.169Z,19.12
2022-08-22T20:12:42.664Z,18.91
2022-08-22T20:14:44.046Z,18.9
2022-08-22T20:16:45.686Z,19.01
2022-08-22T20:18:47.758Z,19.07
2022-08-22T20:20:48.633Z,19.18
2022-08-22T20:22:49.887Z,19.48
2022-08-22T20:24:50.991Z,19.7
2022-08-22T20:27:12.578Z,19.52
2022-08-22T20:28:54.442Z,19.5
2022-08-22T20:30:56.180Z,19.49
2022-08-22T20:32:57.639Z,19.76
2022-08-22T20:34:59.168Z,20.76
2022-08-22T20:37:23.560Z,21.08
2022-08-22T20:39:01.325Z,21.42
2022-08-22T20:41:02.359Z,21.13
2022-08-22T20:43:03.299Z,20.96
2022-08-22T20:45:12.068Z,20.23
2022-08-22T20:47:06.115Z,20.02
2022-08-22T20:49:06.968Z,19.81
2022-08-22T20:51:08.703Z,19.6
2022-08-22T20:53:10.383Z,19.39
2022-08-22T20:55:11.445Z,19.36
2022-08-22T20:57:12.521Z,19.24
2022-08-22T20:59:13.849Z,19.14
2022-08-22T21:01:15.453Z,19.09
2022-08-22T21:03:16.591Z,19.02
2022-08-22T21:05:18.205Z,19.03
2022-08-22T21:07:19.731Z,19.32
2022-08-22T21:09:21.411Z,19.91
2022-08-22T21:11:22.249Z,19.84
2022-08-22T21:13:23.390Z,19.76
2022-08-22T21:15:25.196Z,19.54
2022-08-22T21:17:26.671Z,19.31
2022-08-22T21:19:27.716Z,19.2
2022-08-22T21:23:29.722Z,18.81
2022-08-22T21:25:30.886Z,18.74
2022-08-22T21:27:31.879Z,18.64
2022-08-22T21:29:34.160Z,19.01
2022-08-22T21:31:34.514Z,19.03
2022-08-22T21:33:36.156Z,19.28
2022-08-22T21:35:37.687Z,19.46
2022-08-22T21:37:38.793Z,19.19
2022-08-22T21:39:40.041Z,18.95
2022-08-22T21:41:40.980Z,19.41
2022-08-22T21:43:42.852Z,19.1
2022-08-22T21:45:44.355Z,19.69
2022-08-22T21:47:46.147Z,18.55
2022-08-22T21:49:47.151Z,18.4
2022-08-22T21:51:48.065Z,18.2
2022-08-22T21:53:49.405Z,18.32
2022-08-22T21:55:50.889Z,18.05
2022-08-22T21:57:52.628Z,18.09
2022-08-22T21:59:59.239Z,17.72
2022-08-22T22:01:55.660Z,17.54
2022-08-22T22:03:56.613Z,17.44
2022-08-22T22:05:58.063Z,17.28
2022-08-22T22:07:59.388Z,17.1
2022-08-22T22:10:00.552Z,17.04
2022-08-22T22:12:01.478Z,17.05
2022-08-22T22:14:03.353Z,17.17
2022-08-22T22:16:04.405Z,17.17
2022-08-22T22:18:05.410Z,17.17
2022-08-22T22:20:07.124Z,17.22
2022-08-22T22:22:08.871Z,17.3
2022-08-22T22:24:10.073Z,17.22
2022-08-22T22:26:11.384Z,17.11
2022-08-22T22:28:12.750Z,17.05
2022-08-22T22:30:13.872Z,16.9
2022-08-22T22:32:15.660Z,16.88
2022-08-22T22:34:16.641Z,17.06
2022-08-22T22:36:17.697Z,17.29
2022-08-22T22:38:21.935Z,17.34
2022-08-22T22:40:20.791Z,17.23
2022-08-22T22:42:22.492Z,17.33
2022-08-22T22:44:23.472Z,17.32
2022-08-22T22:46:25.339Z,17.09
2022-08-22T22:48:26.492Z,16.96
2022-08-22T22:50:27.767Z,17.03
2022-08-22T22:52:28.769Z,16.91
2022-08-22T22:54:30.099Z,16.97
2022-08-22T22:56:31.832Z,16.86
2022-08-22T22:58:32.849Z,16.7
2022-08-22T23:00:34.461Z,16.45
2022-08-22T23:02:35.907Z,16.31
2022-08-22T23:04:37.445Z,16.29
2022-08-22T23:06:39.251Z,16.27
2022-08-22T23:08:40.375Z,16.27
2022-08-22T23:10:41.688Z,16.01
2022-08-22T23:12:42.640Z,16.11
2022-08-22T23:14:44.262Z,16.14
2022-08-22T23:16:45.700Z,16.14
2022-08-22T23:18:47.596Z,16.13
2022-08-22T23:20:49.204Z,16.11
2022-08-22T23:22:50.565Z,15.97
2022-08-22T23:24:52.344Z,15.87
2022-08-22T23:26:53.513Z,15.91
2022-08-22T23:28:54.797Z,15.87
2022-08-22T23:30:56.032Z,15.91
2022-08-22T23:32:57.618Z,15.83
2022-08-22T23:34:58.813Z,15.8
2022-08-22T23:36:59.819Z,15.85
2022-08-22T23:39:01.676Z,15.78
2022-08-22T23:41:05.601Z,15.65
2022-08-22T23:43:04.231Z,15.8
2022-08-22T23:47:07.110Z,15.78
2022-08-22T23:49:08.328Z,15.67
2022-08-22T23:51:10.151Z,15.7
2022-08-22T23:53:11.979Z,15.64
2022-08-22T23:55:13.607Z,15.54
2022-08-22T23:57:58.997Z,15.43
2022-08-22T23:59:59.851Z,15.44
